Time;durP1;ratioP1;P1;durP2;ratioP2;P2;SDS_P1;SDS_P2;PMS_P1;PMS_P2;Temp;Humidity;BMP_temperature;BMP_pressure;BME280_temperature;BME280_humidity;BME280_pressure;Samples;Min_cycle;Max_cycle;Signal;HPM_P1;HPM_P2
2023/01/11 00:21:38;;;;;;;;;;;;;;;;;;5685963;22;19937;-96
2023/01/11 00:24:38;;;;;;;;;;;;;;;;;;5016713;28;19928;-96
2023/01/11 00:27:07;;;;;;;;;;;;;;;;;;5012410;28;19925;-96
2023/01/11 00:29:50;;;;;;;;;;;;;;;;;;5028393;28;19965;-96
2023/01/11 00:35:26;;;;;;;;;;;;;;;;;;4932276;28;19970;-96
2023/01/11 01:21:46;;;;;;;;;;;;;;;;;;5012171;28;19925;-94
2023/01/11 01:48:53;;;;;;;;;;;;;;;;;;;;;
2023/01/11 02:27:37;;;;;;;;;;;;;;;;;;;;;
2023/01/11 02:30:33;;;;;;;;;;;;;;;;;;4942656;29;19927;-96
2023/01/11 02:46:44;;;;;;;;;;;;;;;;;;5131670;22;19933;-96
2023/01/11 04:19:06;;;;;;;;;;;;;;;;;;4955369;28;20017;-92
2023/01/11 04:21:34;;;;;;;;;;;;;;;;;;4938517;29;20025;-91
2023/01/11 04:23:59;;;;;;;;;;;;;;;;;;4938598;29;19927;-92
2023/01/11 04:26:25;;;;;;;;;;;;;;;;;;4938455;29;19928;-92
2023/01/11 04:28:51;;;;;;;;;;;;;;;;;;4937743;28;19922;-92
2023/01/11 04:31:17;;;;;;;;;;;;;;;;;;4938918;29;19974;-92
2023/01/11 04:33:43;;;;;;;;;;;;;;;;;;4938163;29;19953;-91
2023/01/11 04:36:09;;;;;;;;;;;;;;;;;;4938652;29;19977;-93
2023/01/11 04:38:35;;;;;;;;;;;;;;;;;;4938201;29;19930;-91
2023/01/11 04:43:46;;;;;;;;;;;;;;;;;;4953997;28;19926;-91
2023/01/11 04:46:12;;;;;;;;;;;;;;;;;;4937990;29;19923;-90
2023/01/11 04:48:41;;;;;;;;;;;;;;;;;;4938203;29;20370;-91
2023/01/11 04:51:06;;;;;;;;;;;;;;;;;;4937903;29;19929;-91
2023/01/11 04:53:33;;;;;;;;;;;;;;;;;;4953156;28;19927;-91
2023/01/11 04:55:59;;;;;;;;;;;;;;;;;;4937646;28;20258;-91
2023/01/11 04:58:25;;;;;;;;;;;;;;;;;;4937517;29;19929;-91
2023/01/11 05:00:51;;;;;;;;;;;;;;;;;;4953528;28;19929;-91
2023/01/11 05:03:16;;;;;;;;;;;;;;;;;;4937780;29;19926;-91
2023/01/11 05:05:42;;;;;;;;;;;;;;;;;;4937610;29;20325;-92
2023/01/11 05:08:08;;;;;;;;;;;;;;;;;;4937435;29;19946;-91
2023/01/11 05:10:34;;;;;;;;;;;;;;;;;;4937397;28;20409;-91
2023/01/11 05:13:00;;;;;;;;;;;;;;;;;;4937629;29;20318;-92
2023/01/11 05:15:29;;;;;;;;;;;;;;;;;;4937845;29;19976;-91
2023/01/11 05:17:55;;;;;;;;;;;;;;;;;;4949637;28;20016;-93
2023/01/11 05:20:21;;;;;;;;;;;;;;;;;;4956681;28;20292;-92
2023/01/11 05:22:47;;;;;;;;;;;;;;;;;;4955879;28;20369;-91
2023/01/11 05:25:13;;;;;;;;;;;;;;;;;;4972766;28;20020;-92
2023/01/11 05:27:39;;;;;;;;;;;;;;;;;;4956148;28;20017;-91
2023/01/11 05:30:05;;;;;;;;;;;;;;;;;;4956024;28;19930;-94
2023/01/11 05:32:31;;;;;;;;;;;;;;;;;;4956420;28;19930;-91
2023/01/11 05:34:56;;;;;;;;;;;;;;;;;;4956233;28;20001;-91
2023/01/11 05:37:22;;;;;;;;;;;;;;;;;;4955767;28;19926;-91
2023/01/11 05:39:48;;;;;;;;;;;;;;;;;;4956430;28;19926;-90
2023/01/11 05:42:15;;;;;;;;;;;;;;;;;;4955866;28;20047;-90
2023/01/11 05:47:26;;;;;;;;;;;;;;;;;;5004688;28;20297;-90
2023/01/11 05:49:52;;;;;;;;;;;;;;;;;;4956111;28;19973;-92
2023/01/11 05:52:18;;;;;;;;;;;;;;;;;;4956205;28;19927;-92
2023/01/11 05:54:44;;;;;;;;;;;;;;;;;;4956641;28;19945;-92
2023/01/11 05:57:10;;;;;;;;;;;;;;;;;;4956494;28;19922;-92
2023/01/11 05:59:36;;;;;;;;;;;;;;;;;;4956106;28;20005;-92
2023/01/11 06:02:02;;;;;;;;;;;;;;;;;;4988502;28;20292;-92
2023/01/11 06:04:28;;;;;;;;;;;;;;;;;;4955588;28;19927;-92
2023/01/11 06:06:54;;;;;;;;;;;;;;;;;;4956505;28;19922;-93
2023/01/11 06:09:20;;;;;;;;;;;;;;;;;;4956377;28;20281;-93
2023/01/11 06:11:47;;;;;;;;;;;;;;;;;;4956290;28;20012;-92
2023/01/11 06:14:12;;;;;;;;;;;;;;;;;;4956320;28;20281;-92
2023/01/11 06:16:38;;;;;;;;;;;;;;;;;;4958851;28;19922;-92
2023/01/11 06:19:04;;;;;;;;;;;;;;;;;;4991095;28;19983;-91
2023/01/11 06:21:30;;;;;;;;;;;;;;;;;;4990855;28;20345;-92
2023/01/11 06:23:56;;;;;;;;;;;;;;;;;;4992608;28;19926;-94
2023/01/11 06:26:24;;;;;;;;;;;;;;;;;;5008424;28;19922;-91
2023/01/11 06:28:50;;;;;;;;;;;;;;;;;;4991128;28;20300;-91
2023/01/11 06:31:16;;;;;;;;;;;;;;;;;;4991653;28;20076;-91
2023/01/11 06:33:42;;;;;;;;;;;;;;;;;;4991534;28;19985;-92
2023/01/11 06:36:08;;;;;;;;;;;;;;;;;;4991353;28;19929;-91
2023/01/11 06:38:34;;;;;;;;;;;;;;;;;;4991151;28;19925;-92
2023/01/11 06:41:00;;;;;;;;;;;;;;;;;;4990907;28;19934;-91
2023/01/11 06:43:26;;;;;;;;;;;;;;;;;;4991342;28;19926;-91
2023/01/11 06:45:52;;;;;;;;;;;;;;;;;;4991226;28;19976;-91
2023/01/11 06:48:18;;;;;;;;;;;;;;;;;;4990949;28;19972;-91
2023/01/11 06:50:44;;;;;;;;;;;;;;;;;;4991362;28;19923;-91
2023/01/11 06:53:10;;;;;;;;;;;;;;;;;;4994632;28;20005;-91
2023/01/11 06:55:36;;;;;;;;;;;;;;;;;;4995016;28;19922;-91
2023/01/11 06:58:01;;;;;;;;;;;;;;;;;;4994557;28;20045;-91
2023/01/11 07:00:27;;;;;;;;;;;;;;;;;;4994805;28;20365;-91
2023/01/11 07:02:53;;;;;;;;;;;;;;;;;;4994206;28;19921;-91
2023/01/11 07:05:19;;;;;;;;;;;;;;;;;;4994643;28;19926;-92
2023/01/11 07:07:45;;;;;;;;;;;;;;;;;;4994857;28;19926;-91
2023/01/11 07:10:11;;;;;;;;;;;;;;;;;;4994509;28;20399;-92
2023/01/11 07:12:37;;;;;;;;;;;;;;;;;;4994299;28;20392;-92
2023/01/11 07:15:03;;;;;;;;;;;;;;;;;;4994281;28;19929;-91
2023/01/11 07:17:32;;;;;;;;;;;;;;;;;;4978284;28;19940;-91
2023/01/11 07:19:58;;;;;;;;;;;;;;;;;;4994416;28;20017;-92
2023/01/11 07:22:25;;;;;;;;;;;;;;;;;;4993919;28;19980;-92
2023/01/11 07:24:51;;;;;;;;;;;;;;;;;;4994686;28;19977;-92
2023/01/11 07:27:18;;;;;;;;;;;;;;;;;;4994023;28;19921;-91
2023/01/11 07:29:44;;;;;;;;;;;;;;;;;;4994313;28;19922;-92
2023/01/11 07:32:10;;;;;;;;;;;;;;;;;;4993907;28;19926;-92
2023/01/11 07:34:36;;;;;;;;;;;;;;;;;;4993857;28;20002;-92
2023/01/11 07:37:02;;;;;;;;;;;;;;;;;;5010672;28;19921;-91
2023/01/11 07:39:28;;;;;;;;;;;;;;;;;;4994229;28;19944;-92
2023/01/11 07:44:42;;;;;;;;;;;;;;;;;;4977945;28;19936;-94
2023/01/11 07:47:08;;;;;;;;;;;;;;;;;;4994387;28;19921;-94
2023/01/11 07:49:34;;;;;;;;;;;;;;;;;;4994596;28;19973;-94
2023/01/11 07:52:00;;;;;;;;;;;;;;;;;;4994371;28;20345;-94
2023/01/11 07:54:26;;;;;;;;;;;;;;;;;;4994488;28;19961;-93
2023/01/11 07:56:55;;;;;;;;;;;;;;;;;;4994418;28;19922;-93
2023/01/11 07:59:21;;;;;;;;;;;;;;;;;;4993781;28;19957;-93
2023/01/11 08:01:50;;;;;;;;;;;;;;;;;;4978270;28;19925;-93
2023/01/11 08:04:16;;;;;;;;;;;;;;;;;;4998794;28;19993;-95
2023/01/11 08:09:43;;;;;;;;;;;;;;;;;;4939510;29;19927;-96
2023/01/11 08:29:44;;;;;;;;;;;;;;;;;;;;;
2023/01/11 08:32:10;;;;;;;;;;;;;;;;;;4975305;28;19930;-96
2023/01/11 08:37:55;;;;;;;;;;;;;;;;;;4977650;28;19957;-96
2023/01/11 08:54:15;;;;;;;;;;;;;;;;;;;;;
2023/01/11 10:06:07;;;;;;;;;;;;;;;;;;5470519;22;20604;-94
2023/01/11 10:08:38;;;;;;;;;;;;;;;;;;4998864;28;19975;-94
2023/01/11 10:11:04;;;;;;;;;;;;;;;;;;4998946;28;20011;-94
2023/01/11 10:13:31;;;;;;;;;;;;;;;;;;4998602;28;19921;-96
2023/01/11 10:15:59;;;;;;;;;;;;;;;;;;5000550;28;19944;-94
2023/01/11 10:18:28;;;;;;;;;;;;;;;;;;5016485;28;20036;-96
2023/01/11 10:20:54;;;;;;;;;;;;;;;;;;4998658;28;20103;-95
2023/01/11 10:23:23;;;;;;;;;;;;;;;;;;4999523;28;19971;-96
2023/01/11 11:39:46;;;;;;;;;;;;;;;;;;4995569;28;19932;-94
2023/01/11 12:06:30;;;;;;;;;;;;;;;;;;5084305;22;19925;-93
2023/01/11 12:08:57;;;;;;;;;;;;;;;;;;5000920;28;19947;-95
2023/01/11 12:11:25;;;;;;;;;;;;;;;;;;5000697;28;19923;-92
2023/01/11 12:14:08;;;;;;;;;;;;;;;;;;5003880;28;19921;-94
2023/01/11 12:28:56;;;;;;;;;;;;;;;;;;;;;
2023/01/11 12:40:31;;;;;;;;;;;;;;;;;;5002819;28;19921;-95
2023/01/11 12:43:02;;;;;;;;;;;;;;;;;;;;;
2023/01/11 12:48:23;;;;;;;;;;;;;;;;;;5340298;22;19948;-94
2023/01/11 12:50:49;;;;;;;;;;;;;;;;;;4979767;28;20337;-94
2023/01/11 12:53:20;;;;;;;;;;;;;;;;;;4980167;28;19921;-92
2023/01/11 12:55:46;;;;;;;;;;;;;;;;;;4996668;28;19926;-94
2023/01/11 12:58:12;;;;;;;;;;;;;;;;;;4982081;28;20325;-94
2023/01/11 13:13:57;;;;;;;;;;;;;;;;;;5052535;28;19982;-94
2023/01/11 13:16:23;;;;;;;;;;;;;;;;;;5036348;28;19921;-94
2023/01/11 13:18:49;;;;;;;;;;;;;;;;;;5019148;28;19927;-95
2023/01/11 13:56:01;;;;;;;;;;;;;;;;;;5038364;28;19975;-93
2023/01/11 13:58:30;;;;;;;;;;;;;;;;;;5018370;28;19936;-96
2023/01/11 14:01:09;;;;;;;;;;;;;;;;;;5023634;28;19921;-96
2023/01/11 14:56:09;;;;;;;;;;;;;;;;;;;;;
2023/01/11 14:58:35;;;;;;;;;;;;;;;;;;5014489;28;19921;-93
2023/01/11 15:01:10;;;;;;;;;;;;;;;;;;4998521;28;19933;-94
2023/01/11 15:14:28;;;;;;;;;;;;;;;;;;5168167;22;19925;-95
2023/01/11 15:19:48;;;;;;;;;;;;;;;;;;4997641;28;19925;-95
2023/01/11 15:22:14;;;;;;;;;;;;;;;;;;4982234;28;19925;-94
2023/01/11 15:24:40;;;;;;;;;;;;;;;;;;4981617;28;19988;-94
2023/01/11 15:27:06;;;;;;;;;;;;;;;;;;4981320;28;19922;-95
2023/01/11 15:29:34;;;;;;;;;;;;;;;;;;4981689;28;20028;-96
2023/01/11 15:32:00;;;;;;;;;;;;;;;;;;4981804;28;20020;-96
2023/01/11 15:34:32;;;;;;;;;;;;;;;;;;4984222;28;19921;-96
2023/01/11 15:36:58;;;;;;;;;;;;;;;;;;4987960;28;19928;-95
2023/01/11 15:39:27;;;;;;;;;;;;;;;;;;4994255;28;19953;-96
2023/01/11 15:42:02;;;;;;;;;;;;;;;;;;4981936;28;19925;-96
2023/01/11 15:44:28;;;;;;;;;;;;;;;;;;4980521;28;19960;-94
2023/01/11 15:46:54;;;;;;;;;;;;;;;;;;4981281;28;19921;-92
2023/01/11 15:49:20;;;;;;;;;;;;;;;;;;4980479;28;19928;-93
2023/01/11 15:51:47;;;;;;;;;;;;;;;;;;4980512;28;19921;-94
2023/01/11 15:54:17;;;;;;;;;;;;;;;;;;5015125;28;19922;-94
2023/01/11 15:56:43;;;;;;;;;;;;;;;;;;4980429;28;20028;-94
2023/01/11 15:59:09;;;;;;;;;;;;;;;;;;4980929;28;19933;-92
2023/01/11 16:01:35;;;;;;;;;;;;;;;;;;4996773;28;20283;-94
2023/01/11 16:04:01;;;;;;;;;;;;;;;;;;4980209;28;19929;-92
2023/01/11 16:06:28;;;;;;;;;;;;;;;;;;4980608;28;20052;-93
2023/01/11 16:08:55;;;;;;;;;;;;;;;;;;4980137;28;19921;-94
2023/01/11 16:14:08;;;;;;;;;;;;;;;;;;4993633;28;20060;-94
2023/01/11 16:16:37;;;;;;;;;;;;;;;;;;4993699;28;20074;-94
2023/01/11 16:19:03;;;;;;;;;;;;;;;;;;4977240;28;20321;-93
2023/01/11 16:21:29;;;;;;;;;;;;;;;;;;4977719;28;20013;-95
2023/01/11 16:29:28;;;;;;;;;;;;;;;;;;5286814;22;19926;-96
2023/01/11 16:34:38;;;;;;;;;;;;;;;;;;5522632;22;19925;-92
2023/01/11 16:37:09;;;;;;;;;;;;;;;;;;5017036;28;19925;-94
2023/01/11 18:08:47;;;;;;;;;;;;;;;;;;;;;
2023/01/11 18:11:44;;;;;;;;;;;;;;;;;;4983220;28;19921;-96
2023/01/11 18:14:26;;;;;;;;;;;;;;;;;;4962577;28;20012;-93
2023/01/11 18:17:18;;;;;;;;;;;;;;;;;;4958424;28;19923;-93
2023/01/11 18:22:46;;;;;;;;;;;;;;;;;;4972080;28;20365;-96
2023/01/11 18:25:13;;;;;;;;;;;;;;;;;;4964090;28;19926;-92
2023/01/11 18:27:42;;;;;;;;;;;;;;;;;;4955573;28;20391;-92
2023/01/11 18:30:10;;;;;;;;;;;;;;;;;;4995104;28;20289;-94
2023/01/11 18:53:28;;;;;;;;;;;;;;;;;;5161371;22;19979;-95
2023/01/11 18:55:54;;;;;;;;;;;;;;;;;;5002134;28;19921;-95
2023/01/11 18:58:21;;;;;;;;;;;;;;;;;;5017888;28;19921;-95
2023/01/11 19:00:47;;;;;;;;;;;;;;;;;;5002626;28;19925;-94
2023/01/11 19:03:14;;;;;;;;;;;;;;;;;;4999880;28;19925;-94
2023/01/11 19:05:43;;;;;;;;;;;;;;;;;;5002443;28;19929;-93
2023/01/11 19:10:51;;;;;;;;;;;;;;;;;;5911579;22;20395;-96
2023/01/11 19:42:21;;;;;;;;;;;;;;;;;;;;;
2023/01/11 19:44:52;;;;;;;;;;;;;;;;;;5033079;23;19929;-96
2023/01/11 20:01:19;;;;;;;;;;;;;;;;;;5060686;28;20402;-94
2023/01/11 20:08:56;;;;;;;;;;;;;;;;;;5229266;22;19925;-96
2023/01/11 20:11:22;;;;;;;;;;;;;;;;;;4999313;28;19928;-95
2023/01/11 20:13:51;;;;;;;;;;;;;;;;;;5000403;28;19998;-94
2023/01/11 20:16:17;;;;;;;;;;;;;;;;;;4999891;28;20364;-96
2023/01/11 20:18:51;;;;;;;;;;;;;;;;;;5000734;28;19921;-96
2023/01/11 20:21:19;;;;;;;;;;;;;;;;;;5001100;28;19998;-95
2023/01/11 20:23:45;;;;;;;;;;;;;;;;;;5001275;28;19978;-95
2023/01/11 20:26:13;;;;;;;;;;;;;;;;;;5001637;28;19921;-95
2023/01/11 20:28:39;;;;;;;;;;;;;;;;;;4999321;28;19951;-96
2023/01/11 20:31:05;;;;;;;;;;;;;;;;;;4999923;28;19925;-96
2023/01/11 20:33:31;;;;;;;;;;;;;;;;;;5000347;28;20346;-94
2023/01/11 20:35:57;;;;;;;;;;;;;;;;;;4999995;28;20386;-95
2023/01/11 20:38:23;;;;;;;;;;;;;;;;;;5000437;28;19921;-96
2023/01/11 20:40:52;;;;;;;;;;;;;;;;;;5003818;28;19921;-95
2023/01/11 20:43:21;;;;;;;;;;;;;;;;;;5000769;28;19933;-95
2023/01/11 20:45:47;;;;;;;;;;;;;;;;;;5000557;28;19957;-96
2023/01/11 20:48:13;;;;;;;;;;;;;;;;;;5000085;28;19928;-95
2023/01/11 20:51:21;;;;;;;;;;;;;;;;;;5000382;28;19921;-96
2023/01/11 20:53:34;;;;;;;;;;;;;;;;;;5014950;28;19976;-96
2023/01/11 20:58:47;;;;;;;;;;;;;;;;;;5888298;22;20376;-96
2023/01/11 21:01:13;;;;;;;;;;;;;;;;;;4997580;28;19925;-95
2023/01/11 21:06:33;;;;;;;;;;;;;;;;;;4983771;28;19928;-94
2023/01/11 21:08:59;;;;;;;;;;;;;;;;;;4997554;28;19922;-95
2023/01/11 21:11:25;;;;;;;;;;;;;;;;;;4996859;28;19929;-96
2023/01/11 21:13:51;;;;;;;;;;;;;;;;;;4996312;28;20364;-94
2023/01/11 21:16:17;;;;;;;;;;;;;;;;;;4996380;28;19928;-95
2023/01/11 21:18:43;;;;;;;;;;;;;;;;;;4996396;28;19921;-95
2023/01/11 21:21:09;;;;;;;;;;;;;;;;;;4995595;28;19921;-94
2023/01/11 21:23:35;;;;;;;;;;;;;;;;;;4996161;28;19921;-94
2023/01/11 21:26:03;;;;;;;;;;;;;;;;;;4996840;28;19929;-94
2023/01/11 21:28:29;;;;;;;;;;;;;;;;;;4994062;28;19921;-93
2023/01/11 21:30:55;;;;;;;;;;;;;;;;;;4994544;28;19921;-94
2023/01/11 21:33:21;;;;;;;;;;;;;;;;;;4996045;28;20034;-95
2023/01/11 21:35:47;;;;;;;;;;;;;;;;;;4995812;28;19936;-94
2023/01/11 21:38:16;;;;;;;;;;;;;;;;;;4996226;28;19971;-96
2023/01/11 21:40:42;;;;;;;;;;;;;;;;;;4996273;28;19921;-93
2023/01/11 21:43:12;;;;;;;;;;;;;;;;;;4995927;28;19948;-87
2023/01/11 21:45:38;;;;;;;;;;;;;;;;;;4995078;28;19988;-91
2023/01/11 21:48:04;;;;;;;;;;;;;;;;;;4995133;28;19996;-91
2023/01/11 21:50:30;;;;;;;;;;;;;;;;;;4995053;28;19933;-91
2023/01/11 21:52:56;;;;;;;;;;;;;;;;;;5011944;28;20049;-92
2023/01/11 21:55:21;;;;;;;;;;;;;;;;;;4995397;28;19932;-91
2023/01/11 21:57:47;;;;;;;;;;;;;;;;;;4995025;28;19922;-92
2023/01/11 22:00:13;;;;;;;;;;;;;;;;;;4994969;28;19995;-92
2023/01/11 22:02:39;;;;;;;;;;;;;;;;;;4995003;28;19932;-93
2023/01/11 22:05:05;;;;;;;;;;;;;;;;;;4994814;28;20284;-91
2023/01/11 22:07:32;;;;;;;;;;;;;;;;;;4994756;28;19964;-91
2023/01/11 22:09:57;;;;;;;;;;;;;;;;;;4995358;28;20015;-91
2023/01/11 22:12:23;;;;;;;;;;;;;;;;;;5011308;28;20423;-91
2023/01/11 22:14:49;;;;;;;;;;;;;;;;;;4995224;28;19964;-91
2023/01/11 22:17:15;;;;;;;;;;;;;;;;;;4994601;28;20024;-91
2023/01/11 22:19:41;;;;;;;;;;;;;;;;;;4994456;28;20018;-92
2023/01/11 22:22:08;;;;;;;;;;;;;;;;;;4996918;28;19926;-91
2023/01/11 22:24:34;;;;;;;;;;;;;;;;;;4998450;28;19921;-92
2023/01/11 22:27:00;;;;;;;;;;;;;;;;;;4998266;28;19932;-92
2023/01/11 22:29:26;;;;;;;;;;;;;;;;;;4998327;28;19921;-92
2023/01/11 22:31:59;;;;;;;;;;;;;;;;;;4998899;28;19921;-93
2023/01/11 22:34:25;;;;;;;;;;;;;;;;;;5014864;28;19928;-92
2023/01/11 22:36:53;;;;;;;;;;;;;;;;;;4998198;28;19968;-92
2023/01/11 22:39:19;;;;;;;;;;;;;;;;;;4998402;28;20383;-92
2023/01/11 22:41:44;;;;;;;;;;;;;;;;;;4997724;28;20063;-92
2023/01/11 22:44:10;;;;;;;;;;;;;;;;;;4998283;28;19925;-92
2023/01/11 22:46:36;;;;;;;;;;;;;;;;;;4997905;28;19921;-92
2023/01/11 22:49:03;;;;;;;;;;;;;;;;;;4998226;28;19921;-92
2023/01/11 22:51:30;;;;;;;;;;;;;;;;;;4998384;28;19921;-91
2023/01/11 22:53:57;;;;;;;;;;;;;;;;;;4998427;28;20007;-91
2023/01/11 22:56:24;;;;;;;;;;;;;;;;;;4998095;28;19922;-92
2023/01/11 22:58:50;;;;;;;;;;;;;;;;;;4997810;28;19925;-91
2023/01/11 23:01:16;;;;;;;;;;;;;;;;;;4998745;28;19929;-92
2023/01/11 23:03:46;;;;;;;;;;;;;;;;;;5014594;28;19921;-92
2023/01/11 23:06:12;;;;;;;;;;;;;;;;;;5014517;28;20028;-92
2023/01/11 23:08:41;;;;;;;;;;;;;;;;;;4998019;28;20013;-93
2023/01/11 23:11:07;;;;;;;;;;;;;;;;;;4998199;28;19975;-91
2023/01/11 23:13:53;;;;;;;;;;;;;;;;;;4997816;28;19922;-91
2023/01/11 23:16:19;;;;;;;;;;;;;;;;;;4997801;28;19921;-91
2023/01/11 23:18:45;;;;;;;;;;;;;;;;;;4997659;28;19921;-91
2023/01/11 23:21:11;;;;;;;;;;;;;;;;;;4997787;28;20101;-91
2023/01/11 23:23:37;;;;;;;;;;;;;;;;;;4997602;28;20395;-91
2023/01/11 23:26:03;;;;;;;;;;;;;;;;;;4997584;28;20280;-91
2023/01/11 23:28:31;;;;;;;;;;;;;;;;;;4997423;28;19925;-90
2023/01/11 23:30:58;;;;;;;;;;;;;;;;;;4996963;28;19921;-91
2023/01/11 23:33:24;;;;;;;;;;;;;;;;;;4997179;28;19921;-90
2023/01/11 23:36:09;;;;;;;;;;;;;;;;;;;;;
2023/01/11 23:38:38;;;;;;;;;;;;;;;;;;4992773;28;19929;-91
2023/01/11 23:43:49;;;;;;;;;;;;;;;;;;5014109;28;19925;-91
2023/01/11 23:49:00;;;;;;;;;;;;;;;;;;5013298;28;20011;-91
2023/01/11 23:51:26;;;;;;;;;;;;;;;;;;4997018;28;20011;-91
2023/01/11 23:53:52;;;;;;;;;;;;;;;;;;4997306;28;19937;-91
2023/01/11 23:56:18;;;;;;;;;;;;;;;;;;4997443;28;20384;-91
2023/01/11 23:58:43;;;;;;;;;;;;;;;;;;5013280;28;19956;-92
